Time;durP1;ratioP1;P1;durP2;ratioP2;P2;SDS_P1;SDS_P2;PMS_P1;PMS_P2;Temp;Humidity;BMP_temperature;BMP_pressure;BME280_temperature;BME280_humidity;BME280_pressure;Samples;Min_cycle;Max_cycle;Signal;HPM_P1;HPM_P2
2022/07/17 00:00:48;;;;;;;7.87;1.73;;;14.20;99.90;;;;;;5035864;28;20209;-80
2022/07/17 00:03:15;;;;;;;4.13;1.80;;;14.40;99.90;;;;;;5034560;28;20233;-80
2022/07/17 00:05:42;;;;;;;3.43;1.73;;;14.30;99.90;;;;;;5034409;28;20178;-80
2022/07/17 00:08:09;;;;;;;6.50;1.70;;;14.30;99.90;;;;;;5035355;28;20520;-80
2022/07/17 00:10:36;;;;;;;10.20;2.07;;;14.00;99.90;;;;;;5035133;28;20592;-80
2022/07/17 00:13:02;;;;;;;5.50;1.80;;;13.90;99.90;;;;;;5035140;28;20550;-80
2022/07/17 00:15:28;;;;;;;8.00;1.87;;;13.70;99.90;;;;;;5035375;28;20186;-80
2022/07/17 00:17:54;;;;;;;3.57;1.60;;;13.60;99.90;;;;;;5035663;28;20224;-80
2022/07/17 00:20:20;;;;;;;4.10;2.00;;;13.50;99.90;;;;;;5035353;28;20619;-80
2022/07/17 00:22:46;;;;;;;14.57;2.13;;;13.60;99.90;;;;;;5035377;28;20173;-80
2022/07/17 00:25:13;;;;;;;8.30;1.70;;;13.60;99.90;;;;;;5035221;28;20172;-80
2022/07/17 00:27:39;;;;;;;7.40;2.03;;;13.60;99.90;;;;;;5035554;28;20155;-80
2022/07/17 00:30:05;;;;;;;8.40;2.10;;;13.70;99.90;;;;;;5035377;28;20193;-80
2022/07/17 00:32:31;;;;;;;5.90;2.10;;;13.50;99.90;;;;;;5034858;28;20187;-80
2022/07/17 00:34:57;;;;;;;8.73;1.80;;;13.40;99.90;;;;;;5035553;28;20198;-80
2022/07/17 00:37:23;;;;;;;3.47;1.73;;;13.70;99.90;;;;;;5035887;28;20788;-81
2022/07/17 00:39:48;;;;;;;6.07;2.00;;;13.70;99.90;;;;;;5059913;23;20263;-80
2022/07/17 00:42:16;;;;;;;4.47;1.90;;;13.60;99.90;;;;;;5033015;28;20250;-79
2022/07/17 00:44:41;;;;;;;7.27;2.37;;;13.50;99.90;;;;;;5033851;28;20193;-79
2022/07/17 00:47:16;;;;;;;8.80;1.90;;;13.60;99.90;;;;;;5033776;28;20668;-78
2022/07/17 00:49:41;;;;;;;5.27;1.97;;;13.40;99.90;;;;;;5033792;28;20181;-79
2022/07/17 00:52:09;;;;;;;7.53;1.83;;;13.40;99.90;;;;;;5033205;28;20180;-78
2022/07/17 00:54:37;;;;;;;7.60;2.07;;;13.50;99.90;;;;;;5062108;22;20217;-79
2022/07/17 00:57:07;;;;;;;7.80;2.17;;;13.40;99.90;;;;;;5061307;28;20176;-79
2022/07/17 00:59:34;;;;;;;7.40;1.90;;;13.40;99.90;;;;;;5062257;28;20344;-79
2022/07/17 01:02:02;;;;;;;5.53;1.87;;;13.10;99.90;;;;;;5062278;28;20665;-78
2022/07/17 01:04:28;;;;;;;7.63;2.50;;;13.10;99.90;;;;;;5061815;28;20515;-79
2022/07/17 01:06:54;;;;;;;7.97;2.07;;;13.00;99.90;;;;;;5061952;28;20204;-79
2022/07/17 01:09:19;;;;;;;5.33;2.03;;;12.90;99.90;;;;;;5060807;28;20179;-81
2022/07/17 01:11:45;;;;;;;13.03;2.57;;;12.90;99.90;;;;;;5052676;28;20627;-79
2022/07/17 01:14:11;;;;;;;8.10;2.70;;;12.80;99.90;;;;;;5052276;28;20192;-81
2022/07/17 01:16:37;;;;;;;7.23;2.43;;;13.00;99.90;;;;;;5052451;28;20270;-79
2022/07/17 01:19:03;;;;;;;5.37;2.20;;;12.90;99.90;;;;;;5052438;28;20287;-80
2022/07/17 01:21:44;;;;;;;7.27;2.83;;;12.80;99.90;;;;;;5052151;28;20174;-80
2022/07/17 01:24:10;;;;;;;6.87;2.17;;;12.80;99.90;;;;;;5052078;28;20194;-77
2022/07/17 01:26:36;;;;;;;6.20;2.63;;;12.80;99.90;;;;;;5054661;28;20180;-78
2022/07/17 01:29:03;;;;;;;4.70;2.23;;;12.80;99.90;;;;;;5058571;28;20772;-80
2022/07/17 01:31:29;;;;;;;3.73;2.23;;;13.10;99.90;;;;;;5056883;28;20216;-80
2022/07/17 01:33:54;;;;;;;8.13;2.70;;;13.00;99.90;;;;;;5053598;28;20197;-79
2022/07/17 01:36:24;;;;;;;5.80;2.40;;;12.80;99.90;;;;;;5053130;28;20262;-79
2022/07/17 01:38:50;;;;;;;4.87;2.17;;;12.60;99.90;;;;;;5052710;28;20182;-80
2022/07/17 01:41:16;;;;;;;6.20;2.90;;;12.70;99.90;;;;;;5052185;28;20170;-80
2022/07/17 01:43:42;;;;;;;7.60;2.23;;;12.90;99.90;;;;;;5052608;28;20565;-81
2022/07/17 01:46:07;;;;;;;10.63;2.60;;;12.70;99.90;;;;;;5052381;28;20258;-81
2022/07/17 01:48:33;;;;;;;4.73;2.70;;;12.80;99.90;;;;;;5052814;28;20209;-80
2022/07/17 01:50:59;;;;;;;6.27;2.40;;;12.80;99.90;;;;;;5052209;28;20174;-81
2022/07/17 01:53:25;;;;;;;10.93;2.83;;;12.80;99.90;;;;;;5052322;28;20198;-82
2022/07/17 01:55:51;;;;;;;12.13;2.83;;;12.50;99.90;;;;;;5051805;28;20186;-80
2022/07/17 01:58:17;;;;;;;8.37;2.57;;;12.40;99.90;;;;;;5052309;28;20173;-79
2022/07/17 02:00:43;;;;;;;5.10;2.37;;;12.60;99.90;;;;;;5052231;28;20231;-79
2022/07/17 02:03:08;;;;;;;8.40;2.67;;;12.50;99.90;;;;;;5052360;28;20530;-81
2022/07/17 02:05:34;;;;;;;5.33;2.20;;;12.50;99.90;;;;;;5051647;28;20184;-81
2022/07/17 02:08:00;;;;;;;6.83;2.77;;;12.80;99.90;;;;;;5051775;28;20200;-81
2022/07/17 02:10:26;;;;;;;7.20;2.20;;;12.60;99.90;;;;;;5052778;28;20178;-81
2022/07/17 02:12:51;;;;;;;6.50;2.50;;;12.50;99.90;;;;;;5051616;28;20174;-82
2022/07/17 02:15:17;;;;;;;6.60;2.20;;;12.40;99.90;;;;;;5052151;28;20176;-79
2022/07/17 02:17:43;;;;;;;6.83;2.27;;;12.50;99.90;;;;;;5052939;28;20173;-79
2022/07/17 02:20:11;;;;;;;6.00;2.43;;;12.60;99.90;;;;;;5052889;28;20189;-78
2022/07/17 02:22:37;;;;;;;8.00;2.43;;;12.60;99.90;;;;;;5052105;28;20173;-80
2022/07/17 02:25:03;;;;;;;8.27;2.40;;;12.30;99.90;;;;;;5052303;28;20189;-80
2022/07/17 02:27:31;;;;;;;7.90;2.60;;;12.20;99.90;;;;;;5051604;28;20207;-79
2022/07/17 02:29:57;;;;;;;7.73;2.10;;;12.20;99.90;;;;;;5052752;28;20231;-79
2022/07/17 02:32:23;;;;;;;8.60;2.40;;;12.20;99.90;;;;;;5052198;28;20180;-79
2022/07/17 02:34:48;;;;;;;10.13;2.40;;;12.30;99.90;;;;;;5052517;28;20198;-80
2022/07/17 02:37:14;;;;;;;7.33;2.27;;;12.30;99.90;;;;;;5052299;28;20267;-79
2022/07/17 02:39:52;;;;;;;10.50;2.27;;;12.10;99.90;;;;;;5051498;28;20255;-80
2022/07/17 02:42:28;;;;;;;3.83;2.13;;;12.00;99.90;;;;;;5051767;28;20212;-79
2022/07/17 02:44:55;;;;;;;5.07;2.00;;;12.10;99.90;;;;;;5052639;28;20688;-82
2022/07/17 02:47:25;;;;;;;10.47;2.87;;;12.30;99.90;;;;;;5051995;28;20181;-81
2022/07/17 02:49:52;;;;;;;10.47;3.23;;;12.20;99.90;;;;;;5051493;28;20176;-80
2022/07/17 02:52:18;;;;;;;7.53;2.27;;;12.00;99.90;;;;;;5051484;28;20275;-80
2022/07/17 02:54:44;;;;;;;5.80;2.40;;;11.90;99.90;;;;;;5051469;28;20208;-81
2022/07/17 02:57:09;;;;;;;8.97;2.30;;;11.90;99.90;;;;;;5052920;28;20173;-79
2022/07/17 02:59:35;;;;;;;8.90;2.70;;;11.90;99.90;;;;;;5052717;28;20696;-79
2022/07/17 03:02:01;;;;;;;5.10;2.17;;;11.90;99.90;;;;;;5052639;28;20180;-81
2022/07/17 03:04:27;;;;;;;8.17;2.63;;;12.00;99.90;;;;;;5054967;28;20192;-78
2022/07/17 03:06:52;;;;;;;9.07;2.57;;;11.80;99.90;;;;;;5055556;28;20170;-78
2022/07/17 03:09:18;;;;;;;4.73;2.20;;;11.90;99.90;;;;;;5055474;28;20201;-78
2022/07/17 03:11:43;;;;;;;7.17;2.80;;;11.80;99.90;;;;;;5055299;28;20221;-79
2022/07/17 03:14:10;;;;;;;7.03;3.10;;;11.80;99.90;;;;;;5055334;28;20192;-80
2022/07/17 03:16:35;;;;;;;8.80;2.97;;;11.60;99.90;;;;;;5055024;28;20183;-80
2022/07/17 03:19:01;;;;;;;8.43;3.10;;;11.70;99.90;;;;;;5054991;28;20202;-79
2022/07/17 03:21:27;;;;;;;8.77;3.20;;;11.60;99.90;;;;;;5054821;28;20176;-79
2022/07/17 03:23:52;;;;;;;8.00;2.80;;;11.50;99.90;;;;;;5055330;28;20609;-80
2022/07/17 03:26:18;;;;;;;9.63;2.87;;;11.50;99.90;;;;;;5054959;28;20180;-81
2022/07/17 03:28:44;;;;;;;12.10;3.17;;;11.60;99.90;;;;;;5054880;28;20177;-80
2022/07/17 03:31:09;;;;;;;4.27;2.50;;;11.50;99.90;;;;;;5055013;28;20183;-77
2022/07/17 03:33:35;;;;;;;7.77;3.00;;;11.60;99.90;;;;;;5055291;28;20195;-80
2022/07/17 03:36:01;;;;;;;9.70;3.10;;;11.40;99.90;;;;;;5057316;28;20247;-78
2022/07/17 03:38:26;;;;;;;6.07;3.10;;;11.50;99.90;;;;;;5055001;28;20701;-78
2022/07/17 03:40:52;;;;;;;7.47;3.00;;;11.60;99.90;;;;;;5055175;28;20243;-79
2022/07/17 03:43:18;;;;;;;7.37;3.30;;;11.60;99.90;;;;;;5055728;28;20231;-78
2022/07/17 03:45:43;;;;;;;10.53;3.80;;;11.50;99.90;;;;;;5055970;28;20176;-80
2022/07/17 03:48:09;;;;;;;8.57;3.20;;;11.50;99.90;;;;;;5055841;28;20171;-80
2022/07/17 03:50:34;;;;;;;7.07;3.50;;;11.50;99.90;;;;;;5055217;28;20170;-78
2022/07/17 03:53:00;;;;;;;7.80;3.63;;;11.50;99.90;;;;;;5054392;28;20303;-80
2022/07/17 03:55:26;;;;;;;10.60;3.50;;;11.50;99.90;;;;;;5056201;28;20185;-81
2022/07/17 03:57:52;;;;;;;8.30;3.47;;;11.50;99.90;;;;;;5056319;28;20175;-80
2022/07/17 04:00:18;;;;;;;9.03;3.67;;;11.60;99.90;;;;;;5054364;28;20193;-81
2022/07/17 04:02:44;;;;;;;9.77;4.00;;;11.50;99.90;;;;;;5055044;28;20179;-80
2022/07/17 04:05:10;;;;;;;9.57;3.40;;;11.60;99.90;;;;;;5053556;28;20723;-81
2022/07/17 04:07:40;;;;;;;7.17;3.27;;;11.60;99.90;;;;;;5054392;28;20190;-80
2022/07/17 04:10:07;;;;;;;9.83;3.37;;;11.60;99.90;;;;;;5054500;28;20253;-81
2022/07/17 04:12:33;;;;;;;8.03;3.50;;;11.70;99.90;;;;;;5054224;28;20180;-80
2022/07/17 04:14:59;;;;;;;12.50;3.97;;;11.50;99.90;;;;;;5053108;28;20200;-81
2022/07/17 04:17:25;;;;;;;5.30;3.43;;;11.50;99.90;;;;;;5053552;28;20226;-80
2022/07/17 04:19:51;;;;;;;6.77;3.40;;;11.70;99.90;;;;;;5054424;28;20205;-79
2022/07/17 04:22:17;;;;;;;10.13;3.60;;;11.60;99.90;;;;;;5054297;28;20672;-79
2022/07/17 04:24:43;;;;;;;13.90;3.57;;;11.60;99.90;;;;;;5053990;28;20554;-79
2022/07/17 04:27:09;;;;;;;8.07;3.53;;;11.80;99.90;;;;;;5055954;28;20169;-80
2022/07/17 04:29:35;;;;;;;5.57;3.40;;;11.90;99.90;;;;;;5054105;28;20181;-78
2022/07/17 04:32:02;;;;;;;10.13;3.40;;;11.90;99.90;;;;;;5054172;28;20174;-78
2022/07/17 04:34:28;;;;;;;8.50;3.47;;;12.00;99.90;;;;;;5054415;28;20192;-81
2022/07/17 04:36:54;;;;;;;5.93;3.40;;;12.10;99.90;;;;;;5055031;28;20177;-81
2022/07/17 04:39:20;;;;;;;10.33;3.20;;;12.10;99.90;;;;;;5053341;28;20579;-80
2022/07/17 04:41:45;;;;;;;10.20;2.83;;;12.20;99.90;;;;;;5053763;28;20638;-81
2022/07/17 04:44:11;;;;;;;9.87;3.33;;;12.40;99.90;;;;;;5053615;28;20222;-81
2022/07/17 04:46:37;;;;;;;11.30;2.97;;;12.60;99.90;;;;;;5054235;28;20529;-81
2022/07/17 04:49:02;;;;;;;5.50;3.07;;;12.80;99.90;;;;;;5053509;28;20192;-80
2022/07/17 04:51:28;;;;;;;10.37;2.40;;;13.10;99.90;;;;;;5053623;28;20230;-81
2022/07/17 04:53:54;;;;;;;7.70;2.27;;;13.50;99.90;;;;;;5053665;28;20719;-78
2022/07/17 04:56:20;;;;;;;8.33;2.33;;;13.80;99.90;;;;;;5053833;28;20282;-78
2022/07/17 04:58:45;;;;;;;7.30;2.10;;;14.10;99.90;;;;;;5054029;28;20207;-78
2022/07/17 05:01:11;;;;;;;8.17;2.40;;;14.30;99.90;;;;;;5054373;28;20227;-79
2022/07/17 05:03:37;;;;;;;8.83;2.40;;;14.50;99.90;;;;;;5053760;28;20692;-80
2022/07/17 05:06:03;;;;;;;6.43;2.57;;;14.30;99.90;;;;;;5053273;28;20217;-79
2022/07/17 05:08:29;;;;;;;4.90;2.43;;;14.30;99.90;;;;;;5053738;28;20664;-80
2022/07/17 05:10:54;;;;;;;8.77;2.30;;;14.10;99.90;;;;;;5053652;28;20275;-80
2022/07/17 05:13:20;;;;;;;7.33;2.50;;;14.10;99.90;;;;;;5052781;28;20189;-80
2022/07/17 05:15:46;;;;;;;3.87;2.63;;;14.10;99.90;;;;;;5053159;28;20589;-82
2022/07/17 05:18:11;;;;;;;6.00;2.43;;;14.00;99.90;;;;;;5053768;28;20189;-79
2022/07/17 05:20:39;;;;;;;5.00;2.47;;;14.20;99.90;;;;;;5053560;28;20205;-81
2022/07/17 05:23:05;;;;;;;9.83;2.57;;;14.20;99.90;;;;;;5054056;28;20169;-82
2022/07/17 05:25:31;;;;;;;5.63;2.10;;;14.60;99.90;;;;;;5052743;28;20261;-80
2022/07/17 05:27:56;;;;;;;2.60;1.97;;;14.80;99.90;;;;;;5052630;28;20204;-80
2022/07/17 05:30:22;;;;;;;3.87;2.07;;;15.20;99.90;;;;;;5053433;28;20212;-77
2022/07/17 05:32:48;;;;;;;4.77;1.90;;;15.00;99.90;;;;;;5054157;28;20227;-78
2022/07/17 05:35:13;;;;;;;8.27;2.20;;;15.00;99.90;;;;;;5052962;28;20271;-79
2022/07/17 05:37:39;;;;;;;8.87;2.37;;;15.20;99.90;;;;;;5053112;28;20272;-79
2022/07/17 05:40:06;;;;;;;5.87;2.03;;;15.50;99.90;;;;;;5052627;28;20193;-79
2022/07/17 05:42:31;;;;;;;4.33;2.13;;;15.40;99.90;;;;;;5053062;28;20173;-79
2022/07/17 05:44:58;;;;;;;6.30;1.93;;;15.30;99.90;;;;;;5053031;28;20197;-79
2022/07/17 05:47:24;;;;;;;8.20;2.27;;;15.60;99.90;;;;;;5053470;28;20580;-79
2022/07/17 05:49:50;;;;;;;5.27;1.80;;;15.80;99.90;;;;;;5053719;28;20311;-80
2022/07/17 05:52:16;;;;;;;5.60;1.60;;;16.00;99.90;;;;;;5052945;28;20177;-80
2022/07/17 05:54:41;;;;;;;9.17;2.03;;;16.10;99.90;;;;;;5054182;28;20217;-80
2022/07/17 05:57:07;;;;;;;7.23;1.73;;;16.50;99.90;;;;;;5053762;28;20227;-80
2022/07/17 05:59:33;;;;;;;4.00;1.67;;;16.40;99.90;;;;;;5053253;28;20205;-80
2022/07/17 06:01:58;;;;;;;7.35;1.70;;;16.90;99.90;;;;;;5053342;28;20216;-79
2022/07/17 06:04:24;;;;;;;8.95;1.85;;;17.30;99.90;;;;;;5053495;28;20227;-79
2022/07/17 06:06:49;;;;;;;2.47;1.60;;;17.70;99.90;;;;;;5053366;28;20178;-79
2022/07/17 06:09:15;;;;;;;4.28;1.63;;;17.70;99.90;;;;;;5055594;28;20170;-80
2022/07/17 06:11:41;;;;;;;6.20;1.83;;;18.00;99.90;;;;;;5052039;28;20182;-80
2022/07/17 06:14:06;;;;;;;8.93;1.75;;;18.10;99.90;;;;;;5051628;28;20202;-79
2022/07/17 06:16:32;;;;;;;9.75;1.73;;;18.40;99.90;;;;;;5051538;28;20212;-80
2022/07/17 06:18:58;;;;;;;3.35;1.70;;;18.60;99.90;;;;;;5051844;28;20180;-80
2022/07/17 06:21:23;;;;;;;8.52;2.10;;;19.10;99.90;;;;;;5051501;28;20216;-80
2022/07/17 06:23:49;;;;;;;7.13;1.50;;;19.20;99.90;;;;;;5051989;28;20200;-75
2022/07/17 06:26:15;;;;;;;5.43;1.55;;;19.10;99.90;;;;;;5052640;28;20180;-78
2022/07/17 06:28:40;;;;;;;6.50;1.67;;;19.20;99.30;;;;;;5052541;28;20177;-79
2022/07/17 06:31:06;;;;;;;9.73;2.50;;;19.00;99.50;;;;;;5051709;28;20630;-79
2022/07/17 06:33:31;;;;;;;4.13;1.83;;;18.40;99.70;;;;;;5052478;28;20200;-80
2022/07/17 06:35:57;;;;;;;4.13;1.60;;;18.90;99.50;;;;;;5052352;28;20181;-81
2022/07/17 06:38:23;;;;;;;6.93;1.60;;;18.90;99.90;;;;;;5054461;28;20177;-81
2022/07/17 06:40:49;;;;;;;7.05;1.90;;;18.60;99.60;;;;;;5061149;22;20249;-78
2022/07/17 06:43:15;;;;;;;11.05;1.75;;;18.30;99.70;;;;;;5028261;28;20713;-79
2022/07/17 06:45:40;;;;;;;4.47;1.77;;;18.40;99.90;;;;;;5015585;28;20195;-79
2022/07/17 06:48:06;;;;;;;5.45;1.50;;;18.10;99.80;;;;;;5015796;28;20174;-79
2022/07/17 06:50:31;;;;;;;4.28;1.85;;;18.60;99.10;;;;;;5015843;28;20177;-79
2022/07/17 06:52:58;;;;;;;8.13;1.50;;;19.10;98.70;;;;;;5030383;23;20217;-80
2022/07/17 06:55:23;;;;;;;3.92;1.80;;;19.50;98.80;;;;;;5056919;28;20200;-79
2022/07/17 06:57:49;;;;;;;5.38;1.40;;;19.80;97.80;;;;;;5055845;28;20169;-80
2022/07/17 07:00:17;;;;;;;6.63;1.58;;;19.80;96.70;;;;;;5056678;28;20291;-80
2022/07/17 07:02:43;;;;;;;6.95;1.50;;;20.40;96.80;;;;;;5055919;28;20230;-79
2022/07/17 07:05:09;;;;;;;5.38;1.48;;;20.60;95.90;;;;;;5054915;28;20231;-78
2022/07/17 07:07:35;;;;;;;5.65;1.80;;;20.40;94.90;;;;;;5053678;28;20203;-77
2022/07/17 07:10:00;;;;;;;2.33;1.30;;;20.40;95.60;;;;;;5053717;28;20212;-77
2022/07/17 07:12:26;;;;;;;4.47;1.50;;;20.70;95.10;;;;;;5053421;28;20690;-79
2022/07/17 07:14:52;;;;;;;4.15;1.40;;;21.20;94.20;;;;;;5054695;28;20193;-78
2022/07/17 07:17:17;;;;;;;7.18;1.50;;;21.00;93.80;;;;;;5053617;28;20192;-79
2022/07/17 07:19:43;;;;;;;4.47;1.88;;;21.60;94.40;;;;;;5053518;28;20665;-79
2022/07/17 07:22:09;;;;;;;7.13;1.58;;;21.40;93.30;;;;;;5054651;28;20637;-80
2022/07/17 07:24:36;;;;;;;7.57;1.85;;;21.10;92.80;;;;;;5054318;28;20189;-79
2022/07/17 07:27:01;;;;;;;5.30;1.63;;;21.60;93.00;;;;;;5054535;28;20162;-79
2022/07/17 07:29:27;;;;;;;5.70;1.38;;;21.30;91.80;;;;;;5054811;28;20533;-78
2022/07/17 07:31:53;;;;;;;8.52;1.42;;;21.50;91.40;;;;;;5053112;28;20264;-78
2022/07/17 07:34:19;;;;;;;7.03;1.77;;;21.70;92.50;;;;;;5054808;28;20193;-79
2022/07/17 07:36:45;;;;;;;4.88;1.50;;;22.60;91.20;;;;;;5054292;28;20276;-78
2022/07/17 07:39:10;;;;;;;3.58;1.30;;;22.80;90.20;;;;;;5053564;28;20207;-78
2022/07/17 07:41:36;;;;;;;7.82;1.70;;;21.50;91.40;;;;;;5053615;28;20675;-78
2022/07/17 07:44:02;;;;;;;2.38;1.40;;;21.30;91.50;;;;;;5054085;28;20189;-79
2022/07/17 07:46:27;;;;;;;7.43;1.73;;;22.00;91.40;;;;;;5055764;28;20169;-79
2022/07/17 07:48:53;;;;;;;3.88;1.20;;;22.40;91.50;;;;;;5053714;28;20178;-80
2022/07/17 07:51:19;;;;;;;2.85;1.20;;;23.10;90.60;;;;;;5053231;28;20166;-79
2022/07/17 07:53:44;;;;;;;7.28;1.50;;;23.30;90.60;;;;;;5053594;28;20205;-78
2022/07/17 07:56:10;;;;;;;5.57;1.50;;;23.40;89.70;;;;;;5053635;28;20170;-79
2022/07/17 07:58:36;;;;;;;4.47;1.50;;;23.60;90.10;;;;;;5054178;28;20166;-81
2022/07/17 08:01:02;;;;;;;4.70;1.38;;;23.60;87.30;;;;;;5054405;28;20212;-79
2022/07/17 08:03:28;;;;;;;6.43;1.90;;;23.50;88.20;;;;;;5054203;28;20565;-79
2022/07/17 08:05:54;;;;;;;5.50;1.60;;;23.40;88.50;;;;;;5052660;28;20271;-78
2022/07/17 08:08:20;;;;;;;7.18;1.92;;;23.80;88.50;;;;;;5052147;28;20657;-77
2022/07/17 08:10:46;;;;;;;5.50;1.60;;;24.40;86.40;;;;;;5052586;28;20522;-78
2022/07/17 08:13:11;;;;;;;6.25;1.55;;;25.00;85.70;;;;;;5053932;28;20233;-79
2022/07/17 08:15:37;;;;;;;3.78;1.40;;;24.60;85.10;;;;;;5054338;28;20184;-77
2022/07/17 08:18:03;;;;;;;5.75;1.92;;;24.10;85.50;;;;;;5049858;28;20708;-77
2022/07/17 08:20:28;;;;;;;6.57;1.60;;;24.40;86.10;;;;;;5051563;28;20193;-77
2022/07/17 08:22:54;;;;;;;6.15;1.58;;;24.00;84.30;;;;;;5049086;28;20637;-76
2022/07/17 08:25:20;;;;;;;6.38;1.70;;;24.50;84.60;;;;;;5049392;28;20197;-78
2022/07/17 08:27:46;;;;;;;6.95;1.58;;;24.00;84.20;;;;;;5054744;28;20193;-78
2022/07/17 08:30:13;;;;;;;4.30;1.40;;;23.90;84.90;;;;;;5056583;28;20169;-80
2022/07/17 08:32:40;;;;;;;7.30;1.70;;;24.30;85.20;;;;;;5055336;28;20254;-79
2022/07/17 08:35:06;;;;;;;4.70;1.30;;;24.90;84.00;;;;;;5056230;28;20189;-80
2022/07/17 08:37:45;;;;;;;5.75;1.30;;;24.90;83.50;;;;;;5056125;28;20173;-82
2022/07/17 08:40:22;;;;;;;4.43;1.60;;;25.60;82.50;;;;;;5049867;28;20274;-81
2022/07/17 08:42:49;;;;;;;6.10;1.50;;;24.80;83.80;;;;;;5055777;28;20671;-81
2022/07/17 08:45:15;;;;;;;5.00;1.63;;;25.80;82.20;;;;;;5055345;28;20250;-81
2022/07/17 08:47:41;;;;;;;3.85;1.85;;;24.90;81.70;;;;;;5055048;28;20636;-81
2022/07/17 08:50:12;;;;;;;5.28;1.50;;;25.50;83.40;;;;;;5055419;28;20185;-81
2022/07/17 08:52:39;;;;;;;3.72;1.25;;;26.10;81.80;;;;;;5056911;28;20181;-81
2022/07/17 08:55:10;;;;;;;5.65;1.58;;;26.40;79.50;;;;;;5056431;28;20284;-81
2022/07/17 08:57:40;;;;;;;4.88;1.20;;;25.50;78.60;;;;;;5057334;28;20176;-81
2022/07/17 09:00:07;;;;;;;3.22;1.40;;;26.20;79.80;;;;;;5056635;28;20204;-81
2022/07/17 09:02:33;;;;;;;5.20;1.65;;;25.60;77.60;;;;;;5056480;28;20170;-81
2022/07/17 09:04:59;;;;;;;3.40;1.30;;;25.10;78.50;;;;;;5055575;28;20189;-82
2022/07/17 09:07:24;;;;;;;8.65;1.60;;;23.50;81.00;;;;;;5053793;28;20177;-81
2022/07/17 09:09:53;;;;;;;7.30;1.75;;;23.40;82.90;;;;;;5053143;28;20180;-81
2022/07/17 09:12:28;;;;;;;8.15;1.50;;;23.90;82.80;;;;;;5054737;28;20599;-81
2022/07/17 09:14:55;;;;;;;4.55;1.40;;;25.30;79.50;;;;;;5050989;28;20195;-81
2022/07/17 09:17:21;;;;;;;4.35;1.60;;;25.30;79.70;;;;;;5050798;28;20646;-81
2022/07/17 09:19:46;;;;;;;7.35;1.92;;;25.70;78.90;;;;;;5051448;28;20201;-81
2022/07/17 09:22:23;;;;;;;2.20;1.25;;;25.00;79.80;;;;;;5051611;28;20170;-81
2022/07/17 09:24:50;;;;;;;7.47;1.52;;;24.60;79.50;;;;;;5050658;28;20200;-82
2022/07/17 09:27:36;;;;;;;2.05;1.23;;;24.10;81.30;;;;;;5050554;28;20200;-81
2022/07/17 09:30:09;;;;;;;3.80;1.60;;;24.60;80.70;;;;;;5034320;28;20223;-82
2022/07/17 09:32:41;;;;;;;3.05;1.38;;;25.10;79.30;;;;;;5050661;28;20170;-81
2022/07/17 09:35:09;;;;;;;3.45;1.35;;;25.60;78.80;;;;;;5051048;28;20194;-81
2022/07/17 09:37:36;;;;;;;5.95;1.50;;;25.70;78.10;;;;;;5051094;28;20646;-81
2022/07/17 09:40:08;;;;;;;8.02;1.92;;;26.20;77.50;;;;;;5051782;28;20221;-82
2022/07/17 09:42:34;;;;;;;5.63;1.90;;;25.20;77.90;;;;;;5051230;28;20177;-82
2022/07/17 09:45:03;;;;;;;5.22;1.77;;;25.70;76.60;;;;;;5052770;28;20650;-81
2022/07/17 09:47:30;;;;;;;14.77;1.90;;;25.40;78.80;;;;;;5035461;28;20178;-81
2022/07/17 09:49:57;;;;;;;8.63;1.73;;;25.80;78.00;;;;;;5052326;28;20224;-81
2022/07/17 09:52:24;;;;;;;6.00;1.65;;;25.70;76.00;;;;;;5052526;28;20212;-81
2022/07/17 09:54:53;;;;;;;6.90;1.88;;;25.00;76.10;;;;;;5053872;28;20223;-79
2022/07/17 09:57:24;;;;;;;3.15;1.50;;;25.50;77.80;;;;;;5054072;28;20226;-79
2022/07/17 09:59:52;;;;;;;6.57;1.40;;;26.20;76.10;;;;;;5052873;28;20201;-80
2022/07/17 10:02:20;;;;;;;4.03;1.88;;;26.10;75.90;;;;;;5054649;28;20173;-79
2022/07/17 10:04:46;;;;;;;10.65;1.65;;;25.90;77.90;;;;;;5053892;28;20263;-79
2022/07/17 10:07:12;;;;;;;6.97;1.90;;;25.90;75.70;;;;;;5053652;28;20165;-79
2022/07/17 10:09:39;;;;;;;13.23;1.60;;;26.40;76.50;;;;;;5053647;28;20541;-79
2022/07/17 10:12:07;;;;;;;4.85;1.40;;;25.40;78.30;;;;;;5054479;28;20169;-78
2022/07/17 10:14:34;;;;;;;7.55;1.42;;;26.40;77.00;;;;;;5050758;28;20260;-78
2022/07/17 10:17:06;;;;;;;5.22;1.42;;;27.00;72.30;;;;;;5056728;28;20209;-79
2022/07/17 10:19:32;;;;;;;45.63;3.05;;;24.70;74.80;;;;;;5058224;28;20669;-78
2022/07/17 10:22:00;;;;;;;8.30;1.88;;;25.70;75.60;;;;;;5057781;28;20169;-78
2022/07/17 10:24:27;;;;;;;5.88;1.33;;;26.10;74.30;;;;;;5058705;28;20219;-78
2022/07/17 10:26:53;;;;;;;4.90;1.33;;;26.40;72.90;;;;;;5059574;28;20252;-78
2022/07/17 10:29:37;;;;;;;5.43;1.40;;;25.60;71.50;;;;;;5059104;28;20205;-79
2022/07/17 10:32:08;;;;;;;8.35;1.42;;;25.30;74.80;;;;;;5057107;28;20173;-79
2022/07/17 10:34:43;;;;;;;8.77;1.92;;;25.50;73.00;;;;;;5049187;28;20738;-79
2022/07/17 10:37:18;;;;;;;5.22;1.30;;;25.70;73.80;;;;;;5042307;28;20173;-79
2022/07/17 10:40:02;;;;;;;2.65;1.30;;;26.20;74.30;;;;;;5052097;28;20224;-79
2022/07/17 10:42:58;;;;;;;7.80;1.40;;;26.50;71.40;;;;;;5051134;28;20178;-80
2022/07/17 10:45:43;;;;;;;28.08;3.03;;;26.10;71.90;;;;;;5052767;28;20185;-80
2022/07/17 10:48:13;;;;;;;6.97;1.67;;;26.20;73.50;;;;;;5057245;28;20165;-78
2022/07/17 10:50:48;;;;;;;8.02;2.03;;;25.90;72.90;;;;;;5049031;28;20194;-79
2022/07/17 10:53:16;;;;;;;12.15;1.80;;;26.80;72.60;;;;;;5046547;28;20207;-79
2022/07/17 10:55:43;;;;;;;5.35;1.42;;;26.50;73.60;;;;;;5052561;28;20178;-79
2022/07/17 10:58:32;;;;;;;5.35;1.42;;;26.40;73.20;;;;;;5042589;28;20610;-79
2022/07/17 11:01:03;;;;;;;5.10;1.90;;;26.90;73.20;;;;;;5044322;28;20220;-79
2022/07/17 11:03:35;;;;;;;3.00;1.50;;;27.30;74.30;;;;;;5047171;28;20277;-79
2022/07/17 11:06:31;;;;;;;3.78;1.75;;;27.00;71.30;;;;;;5048858;28;20170;-79
2022/07/17 11:09:08;;;;;;;5.68;2.05;;;27.10;73.70;;;;;;5050768;28;20645;-80
2022/07/17 11:11:40;;;;;;;6.47;1.67;;;27.40;72.00;;;;;;5056795;28;20168;-80
2022/07/17 11:14:13;;;;;;;9.25;1.48;;;27.20;72.30;;;;;;5066651;28;20200;-79
2022/07/17 11:16:44;;;;;;;6.13;1.55;;;27.40;70.50;;;;;;5065166;28;20181;-79
2022/07/17 11:19:10;;;;;;;4.07;1.52;;;28.10;71.90;;;;;;5060323;28;20648;-79
2022/07/17 11:21:47;;;;;;;7.95;2.35;;;28.30;71.00;;;;;;5058479;28;20245;-79
2022/07/17 11:24:13;;;;;;;6.70;1.73;;;28.10;69.80;;;;;;5057104;28;20224;-81
2022/07/17 11:26:38;;;;;;;12.82;1.52;;;27.50;71.20;;;;;;5059718;28;20203;-78
2022/07/17 11:29:04;;;;;;;8.93;1.70;;;27.20;71.50;;;;;;5060980;28;20519;-82
2022/07/17 11:31:30;;;;;;;7.38;1.90;;;26.60;71.40;;;;;;5060619;28;20173;-80
2022/07/17 11:33:58;;;;;;;7.85;1.63;;;27.20;71.90;;;;;;5059013;28;20257;-80
2022/07/17 11:36:32;;;;;;;4.18;1.10;;;28.20;71.30;;;;;;5062456;28;20553;-81
2022/07/17 11:39:04;;;;;;;15.27;1.73;;;28.00;69.70;;;;;;5059902;28;20177;-81
2022/07/17 11:41:36;;;;;;;6.28;1.63;;;28.10;70.20;;;;;;5060098;28;20169;-81
2022/07/17 11:44:04;;;;;;;6.32;1.52;;;28.90;70.00;;;;;;5060693;28;20284;-81
2022/07/17 11:46:31;;;;;;;5.50;1.40;;;28.80;69.30;;;;;;5058231;28;20177;-80
2022/07/17 11:48:56;;;;;;;5.38;1.50;;;27.00;70.60;;;;;;5060183;28;20192;-80
2022/07/17 11:51:34;;;;;;;7.25;1.60;;;27.90;70.60;;;;;;5060450;28;20169;-81
2022/07/17 11:54:04;;;;;;;5.15;1.25;;;28.00;70.00;;;;;;5064723;28;20208;-79
2022/07/17 11:56:30;;;;;;;5.72;1.40;;;26.90;69.10;;;;;;5080921;28;20161;-78
2022/07/17 11:58:56;;;;;;;1.67;1.23;;;27.80;68.40;;;;;;5079614;28;20207;-79
2022/07/17 12:01:21;;;;;;;10.13;1.52;;;27.00;68.50;;;;;;5082618;28;20211;-79
2022/07/17 12:03:59;;;;;;;21.75;2.50;;;26.20;69.10;;;;;;5077098;28;20674;-79
2022/07/17 12:06:26;;;;;;;8.45;1.80;;;26.80;69.70;;;;;;5076826;28;20176;-79
2022/07/17 12:08:53;;;;;;;12.27;1.70;;;27.70;68.00;;;;;;5076030;28;20171;-79
2022/07/17 12:11:19;;;;;;;7.75;1.85;;;27.40;69.60;;;;;;5075885;28;20169;-78
2022/07/17 12:13:46;;;;;;;5.88;1.40;;;27.70;68.70;;;;;;5076403;28;20199;-79
2022/07/17 12:16:42;;;;;;;3.38;1.50;;;27.20;67.00;;;;;;5076591;28;20637;-79
2022/07/17 12:19:11;;;;;;;3.03;1.40;;;27.70;70.40;;;;;;5069989;28;20666;-79
2022/07/17 12:22:15;;;;;;;4.90;1.20;;;28.20;68.50;;;;;;5044670;28;20224;-78
2022/07/17 12:24:43;;;;;;;5.35;1.42;;;26.20;68.20;;;;;;5037965;28;20185;-81
2022/07/17 12:27:16;;;;;;;3.15;1.45;;;26.70;71.00;;;;;;5038254;28;20196;-80
2022/07/17 12:29:43;;;;;;;13.27;1.92;;;26.90;67.20;;;;;;5035989;28;20554;-80
2022/07/17 12:32:14;;;;;;;11.60;1.33;;;26.90;70.20;;;;;;5044718;28;20173;-81
2022/07/17 12:34:45;;;;;;;2.50;1.30;;;27.30;70.50;;;;;;5043349;28;20280;-80
2022/07/17 12:37:16;;;;;;;5.55;1.33;;;27.00;67.20;;;;;;5045209;28;20537;-79
2022/07/17 12:39:43;;;;;;;8.23;1.60;;;25.80;68.30;;;;;;5042793;28;20198;-80
2022/07/17 12:42:09;;;;;;;12.93;1.50;;;25.70;69.60;;;;;;5047032;28;20176;-79
2022/07/17 12:44:38;;;;;;;5.22;1.63;;;27.00;70.70;;;;;;5047593;28;20189;-79
2022/07/17 12:47:04;;;;;;;8.95;1.48;;;26.90;68.80;;;;;;5046387;28;20168;-78